Time;durP1;ratioP1;P1;durP2;ratioP2;P2;SDS_P1;SDS_P2;PMS_P1;PMS_P2;Temp;Humidity;BMP_temperature;BMP_pressure;BME280_temperature;BME280_humidity;BME280_pressure;Samples;Min_cycle;Max_cycle;Signal;HPM_P1;HPM_P2
2023/01/14 00:01:13;;;;;;;;;;;8.90;99.90;;;;;;5069618;28;19971;-84
2023/01/14 00:03:39;;;;;;;;;;;8.90;99.90;;;;;;5069943;28;20427;-83
2023/01/14 00:06:05;;;;;;;;;;;8.90;99.90;;;;;;5069836;28;19909;-85
2023/01/14 00:08:30;;;;;;;;;;;8.90;99.90;;;;;;5069885;28;19909;-83
2023/01/14 00:10:59;;;;;;;;;;;8.90;99.90;;;;;;5069604;28;19920;-84
2023/01/14 00:13:25;;;;;;;;;;;8.90;99.90;;;;;;5069604;28;19909;-84
2023/01/14 00:15:55;;;;;;;;;;;8.90;99.90;;;;;;5053344;28;20003;-84
2023/01/14 00:18:21;;;;;;;;;;;8.90;99.90;;;;;;5069606;28;19909;-84
2023/01/14 00:21:00;;;;;;;;;;;8.90;99.90;;;;;;5069500;28;19963;-83
2023/01/14 00:23:26;;;;;;;;;;;8.80;99.90;;;;;;5069584;28;19908;-84
2023/01/14 00:25:51;;;;;;;;;;;8.80;99.90;;;;;;5054113;28;19909;-84
2023/01/14 00:28:17;;;;;;;;;;;8.70;99.90;;;;;;5069305;28;19909;-84
2023/01/14 00:30:42;;;;;;;;;;;8.60;99.90;;;;;;5069533;28;19958;-83
2023/01/14 00:33:08;;;;;;;;;;;8.70;99.90;;;;;;5069346;28;19913;-84
2023/01/14 00:35:34;;;;;;;;;;;8.60;99.90;;;;;;5069426;28;20376;-83
2023/01/14 00:37:59;;;;;;;;;;;8.50;99.90;;;;;;5069099;28;19909;-84
2023/01/14 00:40:25;;;;;;;;;;;8.50;99.90;;;;;;5052503;28;19951;-84
2023/01/14 00:42:50;;;;;;;;;;;8.50;99.90;;;;;;5052232;28;19909;-83
2023/01/14 00:45:16;;;;;;;;;;;8.50;99.90;;;;;;5069149;28;19961;-84
2023/01/14 00:47:41;;;;;;;;;;;8.40;99.90;;;;;;5068968;28;19996;-84
2023/01/14 00:50:07;;;;;;;;;;;8.50;99.90;;;;;;5053642;28;19909;-84
2023/01/14 00:52:32;;;;;;;;;;;8.40;99.90;;;;;;5068603;28;19912;-84
2023/01/14 00:54:58;;;;;;;;;;;8.40;99.90;;;;;;5053435;28;19920;-84
2023/01/14 00:57:23;;;;;;;;;;;8.40;99.90;;;;;;5068413;28;19908;-84
2023/01/14 00:59:49;;;;;;;;;;;8.50;99.90;;;;;;5069032;28;19916;-84
2023/01/14 01:02:14;;;;;;;;;;;8.60;99.90;;;;;;5052558;28;20290;-84
2023/01/14 01:04:39;;;;;;;;;;;8.50;99.90;;;;;;5052576;28;19908;-83
2023/01/14 01:07:05;;;;;;;;;;;8.60;99.90;;;;;;5069360;28;19909;-84
2023/01/14 01:09:31;;;;;;;;;;;8.50;99.90;;;;;;5069336;28;19944;-85
2023/01/14 01:11:56;;;;;;;;;;;8.40;99.90;;;;;;5069026;28;19948;-84
2023/01/14 01:14:23;;;;;;;;;;;8.50;99.90;;;;;;5069041;28;19915;-84
2023/01/14 01:16:49;;;;;;;;;;;8.60;99.90;;;;;;5053795;28;20009;-84
2023/01/14 01:19:15;;;;;;;;;;;8.70;99.90;;;;;;5069393;28;19909;-84
2023/01/14 01:21:41;;;;;;;;;;;8.80;99.90;;;;;;5068809;28;19909;-84
2023/01/14 01:24:06;;;;;;;;;;;8.90;99.90;;;;;;5068815;28;19919;-84
2023/01/14 01:26:32;;;;;;;;;;;8.90;99.90;;;;;;5068908;28;19944;-85
2023/01/14 01:28:58;;;;;;;;;;;9.00;99.90;;;;;;5068640;28;20290;-84
2023/01/14 01:31:24;;;;;;;;;;;9.10;99.90;;;;;;5094513;22;19912;-78
2023/01/14 01:33:49;;;;;;;;;;;9.10;99.90;;;;;;5074132;28;19920;-78
2023/01/14 01:36:19;;;;;;;;;;;9.10;99.90;;;;;;5074572;28;20276;-78
2023/01/14 01:38:45;;;;;;;;;;;9.20;99.90;;;;;;5074465;28;19908;-78
2023/01/14 01:41:15;;;;;;;;;;;9.20;99.90;;;;;;5074724;28;19916;-78
2023/01/14 01:44:00;;;;;;;;;;;9.30;99.90;;;;;;5092535;28;20261;-78
2023/01/14 01:46:25;;;;;;;;;;;9.30;99.90;;;;;;5074522;28;19915;-78
2023/01/14 01:48:51;;;;;;;;;;;9.30;99.90;;;;;;5092741;28;20361;-79
2023/01/14 01:51:19;;;;;;;;;;;9.30;99.90;;;;;;5092620;28;19923;-78
2023/01/14 01:53:45;;;;;;;;;;;9.30;99.90;;;;;;5074421;28;20002;-78
2023/01/14 01:56:14;;;;;;;;;;;9.30;99.90;;;;;;5092649;28;19908;-78
2023/01/14 01:58:39;;;;;;;;;;;9.20;99.90;;;;;;5092504;28;19919;-78
2023/01/14 02:01:05;;;;;;;;;;;9.20;99.90;;;;;;5092328;28;20246;-78
2023/01/14 02:03:38;;;;;;;;;;;9.30;99.90;;;;;;5092367;28;19908;-78
2023/01/14 02:06:04;;;;;;;;;;;9.20;99.90;;;;;;5092459;28;19919;-78
2023/01/14 02:08:31;;;;;;;;;;;9.20;99.90;;;;;;5074352;28;19908;-78
2023/01/14 02:10:56;;;;;;;;;;;9.20;99.90;;;;;;5077683;28;19908;-78
2023/01/14 02:13:27;;;;;;;;;;;9.20;99.90;;;;;;5096178;28;20361;-79
2023/01/14 02:15:54;;;;;;;;;;;9.10;99.90;;;;;;5077982;28;19908;-78
2023/01/14 02:18:26;;;;;;;;;;;9.10;99.90;;;;;;5078058;28;19912;-78
2023/01/14 02:21:12;;;;;;;;;;;9.10;99.90;;;;;;5096238;28;20015;-78
2023/01/14 02:23:56;;;;;;;;;;;9.00;99.90;;;;;;5096143;28;19915;-78
2023/01/14 02:26:24;;;;;;;;;;;9.10;99.90;;;;;;5077924;28;19908;-78
2023/01/14 02:28:50;;;;;;;;;;;9.10;99.90;;;;;;5077836;28;19962;-78
2023/01/14 02:31:34;;;;;;;;;;;9.10;99.90;;;;;;5095756;28;19912;-78
2023/01/14 02:33:59;;;;;;;;;;;9.00;99.90;;;;;;5095983;28;19920;-78
2023/01/14 02:36:37;;;;;;;;;;;8.90;99.90;;;;;;5095981;28;19954;-78
2023/01/14 02:39:14;;;;;;;;;;;8.80;99.90;;;;;;5077606;28;19914;-78
2023/01/14 02:44:34;;;;;;;;;;;8.80;99.90;;;;;;5095917;28;19922;-78
2023/01/14 02:47:05;;;;;;;;;;;8.70;99.90;;;;;;5077485;28;20029;-78
2023/01/14 02:49:32;;;;;;;;;;;8.70;99.90;;;;;;5077681;28;19915;-78
2023/01/14 02:51:58;;;;;;;;;;;8.60;99.90;;;;;;5077149;28;20273;-78
2023/01/14 02:54:24;;;;;;;;;;;8.50;99.90;;;;;;5077495;28;19930;-78
2023/01/14 02:56:50;;;;;;;;;;;8.50;99.90;;;;;;5095538;28;19908;-78
2023/01/14 02:59:18;;;;;;;;;;;8.50;99.90;;;;;;5095583;28;19908;-78
2023/01/14 03:01:59;;;;;;;;;;;8.50;99.90;;;;;;5076871;28;19961;-78
2023/01/14 03:04:26;;;;;;;;;;;8.40;99.90;;;;;;5095380;28;19908;-78
2023/01/14 03:07:13;;;;;;;;;;;8.40;99.90;;;;;;5095385;28;19912;-78
2023/01/14 03:09:57;;;;;;;;;;;8.40;99.90;;;;;;5077107;28;19955;-78
2023/01/14 03:12:41;;;;;;;;;;;8.30;99.90;;;;;;5076670;28;19919;-78
2023/01/14 03:15:19;;;;;;;;;;;8.30;99.90;;;;;;5077139;28;19912;-78
2023/01/14 03:17:58;;;;;;;;;;;8.30;99.90;;;;;;5095166;28;19943;-78
2023/01/14 03:20:36;;;;;;;;;;;8.30;99.90;;;;;;5094403;28;19961;-78
2023/01/14 03:23:04;;;;;;;;;;;8.20;99.90;;;;;;5094637;28;19915;-78
2023/01/14 03:25:30;;;;;;;;;;;8.20;99.90;;;;;;5076813;28;19912;-78
2023/01/14 03:27:57;;;;;;;;;;;8.20;99.90;;;;;;5095024;28;20430;-78
2023/01/14 03:30:31;;;;;;;;;;;8.20;99.90;;;;;;5076827;28;19962;-78
2023/01/14 03:32:59;;;;;;;;;;;8.20;99.90;;;;;;5076159;28;19915;-78
2023/01/14 03:35:26;;;;;;;;;;;8.20;99.90;;;;;;5094821;28;19908;-78
2023/01/14 03:37:57;;;;;;;;;;;8.20;99.90;;;;;;5094888;28;19912;-78
2023/01/14 03:40:23;;;;;;;;;;;8.30;99.90;;;;;;5094702;28;19955;-78
2023/01/14 03:42:52;;;;;;;;;;;8.30;99.90;;;;;;5076300;28;19908;-78
2023/01/14 03:45:20;;;;;;;;;;;8.30;99.90;;;;;;5094755;28;20280;-78
2023/01/14 03:47:46;;;;;;;;;;;8.30;99.90;;;;;;5076912;28;20357;-78
2023/01/14 03:50:16;;;;;;;;;;;8.30;99.90;;;;;;5076441;28;19908;-78
2023/01/14 03:53:00;;;;;;;;;;;8.20;99.90;;;;;;5076061;28;19919;-78
2023/01/14 03:55:25;;;;;;;;;;;8.20;99.90;;;;;;5094538;28;19957;-78
2023/01/14 03:57:59;;;;;;;;;;;8.20;99.90;;;;;;5076175;28;19908;-78
2023/01/14 04:00:30;;;;;;;;;;;8.10;99.90;;;;;;5094471;28;19918;-78
2023/01/14 04:02:58;;;;;;;;;;;8.20;99.90;;;;;;5075832;28;20276;-78
2023/01/14 04:05:24;;;;;;;;;;;8.20;99.90;;;;;;5094242;28;19915;-78
2023/01/14 04:07:50;;;;;;;;;;;8.10;99.90;;;;;;5094095;28;20014;-78
2023/01/14 04:10:16;;;;;;;;;;;8.10;99.90;;;;;;5076103;28;19956;-78
2023/01/14 04:15:20;;;;;;;;;;;8.10;99.90;;;;;;5093686;28;20373;-78
2023/01/14 04:15:27;;;;;;;;;;;8.10;99.90;;;;;;5093933;28;20281;-78
2023/01/14 04:17:53;;;;;;;;;;;8.20;99.90;;;;;;5094062;28;19917;-78
2023/01/14 04:20:18;;;;;;;;;;;8.20;99.90;;;;;;5094224;28;20362;-78
2023/01/14 04:22:44;;;;;;;;;;;8.20;99.90;;;;;;5075393;28;19908;-78
2023/01/14 04:25:09;;;;;;;;;;;8.20;99.90;;;;;;5093652;28;20298;-78
2023/01/14 04:27:34;;;;;;;;;;;8.20;99.90;;;;;;5075564;28;19915;-78
2023/01/14 04:30:00;;;;;;;;;;;8.20;99.90;;;;;;5075503;28;19915;-78
2023/01/14 04:32:25;;;;;;;;;;;8.20;99.90;;;;;;5092905;28;19916;-78
2023/01/14 04:34:51;;;;;;;;;;;8.20;99.90;;;;;;5093843;28;20362;-79
2023/01/14 04:37:16;;;;;;;;;;;8.30;99.90;;;;;;5075601;28;19942;-78
2023/01/14 04:39:42;;;;;;;;;;;8.20;99.90;;;;;;5075370;28;19908;-78
2023/01/14 04:42:26;;;;;;;;;;;8.20;99.90;;;;;;5093278;28;20377;-79
2023/01/14 04:44:56;;;;;;;;;;;8.20;99.90;;;;;;5093479;28;19908;-78
2023/01/14 04:47:21;;;;;;;;;;;8.10;99.90;;;;;;5075399;28;19912;-78
2023/01/14 04:49:47;;;;;;;;;;;8.10;99.90;;;;;;5093501;28;20354;-78
2023/01/14 04:52:12;;;;;;;;;;;8.10;99.90;;;;;;5074892;28;19945;-78
2023/01/14 04:54:38;;;;;;;;;;;8.10;99.90;;;;;;5075320;28;20281;-78
2023/01/14 04:57:03;;;;;;;;;;;8.00;99.90;;;;;;5093281;28;19912;-78
2023/01/14 04:59:29;;;;;;;;;;;8.00;99.90;;;;;;5075138;28;20395;-78
2023/01/14 05:01:54;;;;;;;;;;;8.00;99.90;;;;;;5093064;28;19943;-78
2023/01/14 05:04:20;;;;;;;;;;;8.00;99.90;;;;;;5074979;28;19908;-78
2023/01/14 05:06:45;;;;;;;;;;;8.00;99.90;;;;;;5075167;28;19908;-78
2023/01/14 05:09:11;;;;;;;;;;;7.90;99.90;;;;;;5075238;28;19908;-78
2023/01/14 05:11:36;;;;;;;;;;;7.90;99.90;;;;;;5092870;28;19912;-78
2023/01/14 05:14:02;;;;;;;;;;;7.90;99.90;;;;;;5093115;28;19908;-78
2023/01/14 05:16:27;;;;;;;;;;;7.90;99.90;;;;;;5093000;28;20275;-78
2023/01/14 05:18:53;;;;;;;;;;;7.90;99.90;;;;;;5074977;28;20361;-78
2023/01/14 05:21:19;;;;;;;;;;;7.80;99.90;;;;;;5092879;28;20007;-78
2023/01/14 05:23:45;;;;;;;;;;;7.80;99.90;;;;;;5093048;28;19915;-78
2023/01/14 05:26:10;;;;;;;;;;;7.80;99.90;;;;;;5074931;28;19908;-78
2023/01/14 05:28:36;;;;;;;;;;;7.80;99.90;;;;;;5093197;28;20315;-78
2023/01/14 05:31:02;;;;;;;;;;;7.80;99.90;;;;;;5092615;28;20250;-78
2023/01/14 05:33:27;;;;;;;;;;;7.80;99.90;;;;;;5074542;28;19931;-78
2023/01/14 05:35:53;;;;;;;;;;;7.90;99.90;;;;;;5074804;28;20352;-78
2023/01/14 05:38:19;;;;;;;;;;;7.90;99.90;;;;;;5074669;28;20054;-78
2023/01/14 05:40:44;;;;;;;;;;;7.90;99.90;;;;;;5092815;28;19957;-78
2023/01/14 05:45:54;;;;;;;;;;;7.90;99.90;;;;;;5096609;28;19916;-78
2023/01/14 05:48:21;;;;;;;;;;;7.80;99.90;;;;;;5096956;28;19909;-78
2023/01/14 05:50:53;;;;;;;;;;;7.80;99.90;;;;;;5078786;28;19944;-78
2023/01/14 05:53:19;;;;;;;;;;;7.80;99.90;;;;;;5078372;28;19916;-78
2023/01/14 05:55:45;;;;;;;;;;;7.90;99.90;;;;;;5078799;28;20410;-78
2023/01/14 05:58:10;;;;;;;;;;;7.90;99.90;;;;;;5078481;28;20373;-78
2023/01/14 06:06:22;;;;;;;;;;;8.10;99.90;;;;;;5096720;28;19915;-78
2023/01/14 06:08:49;;;;;;;;;;;8.10;99.90;;;;;;5078477;28;19916;-78
2023/01/14 06:11:14;;;;;;;;;;;8.20;99.90;;;;;;5096336;28;19915;-78
2023/01/14 06:13:40;;;;;;;;;;;8.20;99.90;;;;;;5078414;28;19999;-78
2023/01/14 06:16:08;;;;;;;;;;;8.20;99.90;;;;;;5096401;28;19908;-78
2023/01/14 06:18:39;;;;;;;;;;;8.30;99.90;;;;;;5096600;28;19915;-78
2023/01/14 06:21:07;;;;;;;;;;;8.20;99.90;;;;;;5096002;28;19908;-78
2023/01/14 06:23:32;;;;;;;;;;;8.20;99.90;;;;;;5077933;28;19908;-78
2023/01/14 06:25:59;;;;;;;;;;;8.30;99.90;;;;;;5096308;28;19973;-78
2023/01/14 06:28:24;;;;;;;;;;;8.30;99.90;;;;;;5077924;28;19908;-78
2023/01/14 06:30:50;;;;;;;;;;;8.40;99.90;;;;;;5096358;28;19999;-79
2023/01/14 06:33:15;;;;;;;;;;;8.40;99.90;;;;;;5095766;28;19923;-78
2023/01/14 06:35:42;;;;;;;;;;;8.40;99.90;;;;;;5078160;28;19958;-79
2023/01/14 06:38:08;;;;;;;;;;;8.40;99.90;;;;;;5077948;28;19912;-79
2023/01/14 06:40:33;;;;;;;;;;;8.40;99.90;;;;;;5096276;28;19912;-78
2023/01/14 06:42:59;;;;;;;;;;;8.40;99.90;;;;;;5096016;28;19957;-79
2023/01/14 06:45:24;;;;;;;;;;;8.40;99.90;;;;;;5078649;28;20325;-78
2023/01/14 06:47:50;;;;;;;;;;;8.40;99.90;;;;;;5097036;28;19908;-78
2023/01/14 06:50:18;;;;;;;;;;;8.40;99.90;;;;;;5077799;28;19951;-78
2023/01/14 06:52:43;;;;;;;;;;;8.40;99.90;;;;;;5114594;28;19916;-78
2023/01/14 06:55:09;;;;;;;;;;;8.30;99.90;;;;;;5096757;28;19912;-78
2023/01/14 06:57:34;;;;;;;;;;;8.20;99.90;;;;;;5077535;28;19909;-78
2023/01/14 07:00:00;;;;;;;;;;;8.10;99.90;;;;;;5095564;28;19914;-78
2023/01/14 07:02:25;;;;;;;;;;;8.00;99.90;;;;;;5077121;28;20358;-78
2023/01/14 07:04:51;;;;;;;;;;;8.00;99.90;;;;;;5077307;28;19974;-78
2023/01/14 07:07:17;;;;;;;;;;;7.90;99.90;;;;;;5077249;28;19908;-78
2023/01/14 07:09:42;;;;;;;;;;;7.90;99.90;;;;;;5095775;28;20475;-78
2023/01/14 07:12:08;;;;;;;;;;;7.80;99.90;;;;;;5095111;28;20007;-78
2023/01/14 07:14:33;;;;;;;;;;;7.80;99.90;;;;;;5077041;28;20287;-78
2023/01/14 07:17:00;;;;;;;;;;;7.70;99.90;;;;;;5095338;28;20002;-79
2023/01/14 07:19:26;;;;;;;;;;;7.70;99.90;;;;;;5095195;28;19908;-79
2023/01/14 07:21:51;;;;;;;;;;;7.60;99.90;;;;;;5094849;28;19908;-78
2023/01/14 07:24:16;;;;;;;;;;;7.60;99.90;;;;;;5095274;28;19908;-81
2023/01/14 07:26:42;;;;;;;;;;;7.50;99.90;;;;;;5077044;28;19908;-78
2023/01/14 07:29:07;;;;;;;;;;;7.50;99.90;;;;;;5095353;28;20420;-78
2023/01/14 07:31:36;;;;;;;;;;;7.40;99.90;;;;;;5076550;28;19912;-78
2023/01/14 07:34:01;;;;;;;;;;;7.40;99.90;;;;;;5094906;28;19965;-78
2023/01/14 07:36:27;;;;;;;;;;;7.40;99.90;;;;;;5094818;28;19908;-78
2023/01/14 07:38:52;;;;;;;;;;;7.40;99.90;;;;;;5076696;28;19955;-78
2023/01/14 07:41:18;;;;;;;;;;;7.40;99.90;;;;;;5076402;28;19950;-78
2023/01/14 07:43:44;;;;;;;;;;;7.30;99.90;;;;;;5076803;28;19912;-78
2023/01/14 07:46:09;;;;;;;;;;;7.40;99.90;;;;;;5094688;28;19912;-78
2023/01/14 07:48:35;;;;;;;;;;;7.40;99.90;;;;;;5076640;28;20285;-78
2023/01/14 07:51:04;;;;;;;;;;;7.30;99.90;;;;;;5076254;28;20283;-78
2023/01/14 07:53:30;;;;;;;;;;;7.30;99.90;;;;;;5076161;28;20331;-78
2023/01/14 07:55:55;;;;;;;;;;;7.40;99.90;;;;;;5094712;28;19908;-78
2023/01/14 07:58:23;;;;;;;;;;;7.40;99.90;;;;;;5076243;28;19932;-78
2023/01/14 08:00:48;;;;;;;;;;;7.30;99.90;;;;;;5094455;28;19908;-78
2023/01/14 08:03:14;;;;;;;;;;;7.40;99.90;;;;;;5094318;28;19908;-78
2023/01/14 08:05:39;;;;;;;;;;;7.40;99.90;;;;;;5094432;28;19908;-78
2023/01/14 08:08:05;;;;;;;;;;;7.50;99.90;;;;;;5093951;28;19909;-78
2023/01/14 08:10:30;;;;;;;;;;;7.40;99.90;;;;;;5076278;28;19908;-78
2023/01/14 08:12:56;;;;;;;;;;;7.50;99.90;;;;;;5093866;28;20270;-78
2023/01/14 08:15:21;;;;;;;;;;;7.50;99.90;;;;;;5094121;28;19953;-79
2023/01/14 08:17:47;;;;;;;;;;;7.50;99.90;;;;;;5094060;28;19951;-78
2023/01/14 08:20:13;;;;;;;;;;;7.50;99.90;;;;;;5094166;28;19908;-79
2023/01/14 08:22:38;;;;;;;;;;;7.60;99.90;;;;;;5075450;28;20285;-78
2023/01/14 08:25:04;;;;;;;;;;;7.70;99.90;;;;;;5075698;28;20433;-79
2023/01/14 08:27:29;;;;;;;;;;;7.80;99.90;;;;;;5093848;28;19908;-78
2023/01/14 08:29:55;;;;;;;;;;;7.80;99.90;;;;;;5093831;28;19915;-78
2023/01/14 08:32:21;;;;;;;;;;;7.90;99.90;;;;;;5075003;28;19916;-78
2023/01/14 08:34:46;;;;;;;;;;;8.00;99.90;;;;;;5093764;28;19908;-79
2023/01/14 08:37:12;;;;;;;;;;;8.00;99.90;;;;;;5093712;28;19943;-79
2023/01/14 08:39:37;;;;;;;;;;;8.10;99.90;;;;;;5093609;28;19908;-79
2023/01/14 08:42:03;;;;;;;;;;;8.20;99.90;;;;;;5075165;28;20282;-78
2023/01/14 08:44:28;;;;;;;;;;;8.20;99.90;;;;;;5075394;28;20369;-79
2023/01/14 08:46:54;;;;;;;;;;;8.30;99.90;;;;;;5075322;28;19908;-78
2023/01/14 08:49:19;;;;;;;;;;;8.40;99.90;;;;;;5093456;28;19912;-79
2023/01/14 08:51:45;;;;;;;;;;;8.40;99.90;;;;;;5093109;28;19936;-78
2023/01/14 08:54:10;;;;;;;;;;;8.50;99.90;;;;;;5093542;28;20295;-78
2023/01/14 08:56:36;;;;;;;;;;;8.50;99.90;;;;;;5093366;28;19908;-78
2023/01/14 08:59:01;;;;;;;;;;;8.60;99.90;;;;;;5093316;28;19915;-78
2023/01/14 09:01:27;;;;;;;;;;;8.70;99.90;;;;;;5074733;28;20268;-78
2023/01/14 09:03:57;;;;;;;;;;;8.70;99.90;;;;;;5093179;28;19908;-78
2023/01/14 09:06:23;;;;;;;;;;;8.80;99.90;;;;;;5075045;28;19908;-78
2023/01/14 09:17:10;;;;;;;;;;;8.90;99.90;;;;;;5093498;28;19960;-79
2023/01/14 09:19:37;;;;;;;;;;;8.90;99.90;;;;;;5091986;28;19973;-79
2023/01/14 09:22:06;;;;;;;;;;;8.90;99.90;;;;;;5092610;28;19912;-78
2023/01/14 09:24:31;;;;;;;;;;;9.00;99.90;;;;;;5074686;28;20373;-78
2023/01/14 09:26:57;;;;;;;;;;;9.00;99.90;;;;;;5075197;28;19908;-80
2023/01/14 09:29:23;;;;;;;;;;;9.00;99.90;;;;;;5075197;28;19931;-79
2023/01/14 09:31:48;;;;;;;;;;;9.10;99.90;;;;;;5092188;28;19959;-79
2023/01/14 09:34:13;;;;;;;;;;;9.10;99.90;;;;;;5092754;28;20345;-79
2023/01/14 09:36:39;;;;;;;;;;;9.20;99.90;;;;;;5092753;28;19908;-79
2023/01/14 09:39:04;;;;;;;;;;;9.20;99.90;;;;;;5092858;28;19908;-79
2023/01/14 09:41:34;;;;;;;;;;;9.20;99.90;;;;;;5092477;28;19944;-79
2023/01/14 09:44:00;;;;;;;;;;;9.30;99.90;;;;;;5092830;28;19909;-79
2023/01/14 09:46:26;;;;;;;;;;;9.30;99.90;;;;;;5074494;28;19991;-79
2023/01/14 09:48:55;;;;;;;;;;;9.30;99.90;;;;;;5092619;28;19962;-78
2023/01/14 09:51:21;;;;;;;;;;;9.40;99.90;;;;;;5092331;28;19908;-79
2023/01/14 09:54:07;;;;;;;;;;;9.40;99.90;;;;;;5092718;28;19909;-79
2023/01/14 09:56:38;;;;;;;;;;;9.40;99.90;;;;;;5092540;28;20377;-79
2023/01/14 09:59:10;;;;;;;;;;;9.30;99.90;;;;;;5092713;28;19966;-78
2023/01/14 10:01:56;;;;;;;;;;;9.30;99.90;;;;;;5092469;28;20373;-79
2023/01/14 10:04:36;;;;;;;;;;;9.40;99.90;;;;;;5074539;28;20326;-78
2023/01/14 10:07:03;;;;;;;;;;;9.30;99.90;;;;;;5092574;28;19912;-78
2023/01/14 10:09:40;;;;;;;;;;;9.30;99.90;;;;;;5089457;28;19912;-79
2023/01/14 10:12:07;;;;;;;;;;;9.30;99.90;;;;;;5079802;28;20327;-78
2023/01/14 10:14:38;;;;;;;;;;;9.30;99.90;;;;;;5071014;28;19956;-79
2023/01/14 10:17:06;;;;;;;;;;;9.10;99.90;;;;;;5070739;28;19908;-78
2023/01/14 10:19:44;;;;;;;;;;;9.20;99.90;;;;;;5072270;28;20362;-78
2023/01/14 10:22:15;;;;;;;;;;;9.10;99.90;;;;;;5071724;28;20335;-80
2023/01/14 10:24:41;;;;;;;;;;;9.10;99.90;;;;;;5073284;28;19908;-78
2023/01/14 10:27:18;;;;;;;;;;;9.10;99.90;;;;;;5090812;28;19908;-79
2023/01/14 10:29:45;;;;;;;;;;;9.00;99.90;;;;;;5092328;28;19956;-80
2023/01/14 10:32:15;;;;;;;;;;;9.00;99.90;;;;;;5094284;28;20009;-80
2023/01/14 10:34:48;;;;;;;;;;;9.00;99.90;;;;;;5084615;28;20380;-79
2023/01/14 10:37:14;;;;;;;;;;;9.00;99.90;;;;;;5094516;28;19912;-79
2023/01/14 10:39:50;;;;;;;;;;;9.00;99.90;;;;;;5095759;28;20001;-79
2023/01/14 10:42:22;;;;;;;;;;;9.00;99.90;;;;;;5095561;28;19914;-79
2023/01/14 10:44:48;;;;;;;;;;;9.00;99.90;;;;;;5095779;28;19908;-80
2023/01/14 10:47:15;;;;;;;;;;;9.10;99.90;;;;;;5094389;28;19958;-80
2023/01/14 10:49:47;;;;;;;;;;;9.00;99.90;;;;;;5095876;28;19908;-80
2023/01/14 10:52:21;;;;;;;;;;;9.10;99.90;;;;;;5094083;28;19959;-81
2023/01/14 10:54:58;;;;;;;;;;;9.10;99.90;;;;;;5077472;28;19908;-80
2023/01/14 10:57:24;;;;;;;;;;;9.10;99.90;;;;;;5093881;28;19959;-81
2023/01/14 10:59:50;;;;;;;;;;;9.10;99.90;;;;;;5084892;28;19908;-82
2023/01/14 11:02:29;;;;;;;;;;;9.10;99.90;;;;;;5084123;28;19977;-82
2023/01/14 11:04:55;;;;;;;;;;;9.10;99.90;;;;;;5080607;28;19908;-83
2023/01/14 11:07:28;;;;;;;;;;;9.10;99.90;;;;;;5061712;28;20333;-83
2023/01/14 11:09:55;;;;;;;;;;;9.10;99.90;;;;;;5080572;28;20333;-82
2023/01/14 11:12:24;;;;;;;;;;;9.10;99.90;;;;;;5075026;28;20373;-81
2023/01/14 11:14:50;;;;;;;;;;;9.20;99.90;;;;;;5090771;28;19990;-82
2023/01/14 11:17:26;;;;;;;;;;;9.20;99.90;;;;;;5094144;28;19959;-80
2023/01/14 11:20:12;;;;;;;;;;;9.20;99.90;;;;;;5093913;28;19999;-80
2023/01/14 11:22:37;;;;;;;;;;;9.20;99.90;;;;;;5093440;28;19909;-79
2023/01/14 11:25:03;;;;;;;;;;;9.30;99.90;;;;;;5093925;28;20019;-80
2023/01/14 11:27:30;;;;;;;;;;;9.20;99.90;;;;;;5094924;28;19919;-80
2023/01/14 11:29:59;;;;;;;;;;;9.20;99.90;;;;;;5093252;28;19946;-80
2023/01/14 11:32:25;;;;;;;;;;;9.30;99.90;;;;;;5094476;28;20400;-80
2023/01/14 11:34:54;;;;;;;;;;;9.30;99.90;;;;;;5094766;28;19915;-79
2023/01/14 11:37:21;;;;;;;;;;;9.30;99.90;;;;;;5095176;28;19915;-81
2023/01/14 11:39:47;;;;;;;;;;;9.30;99.90;;;;;;5094169;28;19931;-80
2023/01/14 11:42:21;;;;;;;;;;;9.30;99.90;;;;;;5089222;28;20357;-80
2023/01/14 11:44:57;;;;;;;;;;;9.30;99.90;;;;;;5081801;28;19920;-80
2023/01/14 11:47:23;;;;;;;;;;;9.30;99.90;;;;;;5079622;28;19908;-80
2023/01/14 11:49:49;;;;;;;;;;;9.30;99.90;;;;;;5094392;28;19912;-80
2023/01/14 11:52:19;;;;;;;;;;;9.30;99.90;;;;;;5075942;28;19912;-81
2023/01/14 11:54:47;;;;;;;;;;;9.30;99.90;;;;;;5075783;28;19908;-80
2023/01/14 11:57:16;;;;;;;;;;;9.30;99.90;;;;;;5076183;28;19908;-82
2023/01/14 11:59:43;;;;;;;;;;;9.30;99.90;;;;;;5072687;28;19908;-82
2023/01/14 12:02:21;;;;;;;;;;;9.30;99.90;;;;;;5093556;28;19919;-81
2023/01/14 12:04:52;;;;;;;;;;;9.30;99.90;;;;;;5093097;28;20282;-82
2023/01/14 12:07:37;;;;;;;;;;;9.30;99.90;;;;;;5092789;28;19915;-80
2023/01/14 12:10:05;;;;;;;;;;;9.30;99.90;;;;;;5094120;28;19919;-81
2023/01/14 12:18:25;;;;;;;;;;;9.40;99.90;;;;;;5075229;28;19958;-80
2023/01/14 12:20:52;;;;;;;;;;;9.40;99.90;;;;;;5072095;28;20392;-82
2023/01/14 12:23:19;;;;;;;;;;;9.40;99.90;;;;;;5093121;28;19922;-80
2023/01/14 12:25:47;;;;;;;;;;;9.40;99.90;;;;;;5093667;28;19908;-81
2023/01/14 12:28:29;;;;;;;;;;;9.40;99.90;;;;;;5093783;28;19933;-82
2023/01/14 12:30:58;;;;;;;;;;;9.40;99.90;;;;;;5093662;28;19957;-84
2023/01/14 12:33:32;;;;;;;;;;;9.40;99.90;;;;;;5075531;28;19916;-83
2023/01/14 12:36:14;;;;;;;;;;;9.40;99.90;;;;;;5075731;28;19908;-83
2023/01/14 12:47:20;;;;;;;;;;;9.50;99.90;;;;;;5094195;28;19957;-86
2023/01/14 12:49:45;;;;;;;;;;;9.50;99.90;;;;;;5075454;28;19912;-85
2023/01/14 12:52:13;;;;;;;;;;;9.50;99.90;;;;;;5075031;28;19965;-86
2023/01/14 12:54:40;;;;;;;;;;;9.50;99.90;;;;;;5074874;28;20253;-84
2023/01/14 12:57:06;;;;;;;;;;;9.50;99.90;;;;;;5075046;28;19908;-85
2023/01/14 12:59:41;;;;;;;;;;;9.50;99.90;;;;;;5075374;28;19931;-85
2023/01/14 13:02:16;;;;;;;;;;;9.50;99.90;;;;;;5074674;28;19915;-85
2023/01/14 13:04:44;;;;;;;;;;;9.50;99.90;;;;;;5075026;28;19951;-86
2023/01/14 13:07:16;;;;;;;;;;;9.60;99.90;;;;;;5074637;28;19912;-85
2023/01/14 13:09:47;;;;;;;;;;;9.60;99.90;;;;;;5075161;28;20258;-84
2023/01/14 13:12:21;;;;;;;;;;;9.60;99.90;;;;;;5074733;28;19916;-84
2023/01/14 13:14:51;;;;;;;;;;;9.60;99.90;;;;;;5075166;28;19915;-85
2023/01/14 13:17:18;;;;;;;;;;;9.70;99.90;;;;;;5074931;28;19912;-85
2023/01/14 13:19:48;;;;;;;;;;;9.80;99.90;;;;;;5074476;28;20002;-84
2023/01/14 13:22:34;;;;;;;;;;;9.80;99.90;;;;;;5074486;28;19908;-84
2023/01/14 13:25:01;;;;;;;;;;;9.80;99.90;;;;;;5092836;28;19989;-84
2023/01/14 13:27:37;;;;;;;;;;;9.80;99.90;;;;;;5074670;28;19923;-84
2023/01/14 13:30:18;;;;;;;;;;;9.80;99.90;;;;;;5074711;28;19912;-84
2023/01/14 13:32:49;;;;;;;;;;;9.80;99.90;;;;;;5092031;22;19992;-85
2023/01/14 19:32:49;;;;;;;;;;;13.10;99.90;;;;;;5096491;22;19931;-84
2023/01/14 19:35:14;;;;;;;;;;;13.10;99.90;;;;;;5089860;28;19912;-83
2023/01/14 19:37:40;;;;;;;;;;;13.10;99.90;;;;;;5096178;28;19912;-83
2023/01/14 19:40:06;;;;;;;;;;;13.10;99.90;;;;;;5096147;28;19909;-83
2023/01/14 19:42:31;;;;;;;;;;;13.10;99.90;;;;;;5096989;28;19912;-84
2023/01/14 19:44:57;;;;;;;;;;;13.10;99.90;;;;;;5097911;28;19916;-83
2023/01/14 19:47:22;;;;;;;;;;;13.00;99.90;;;;;;5096515;28;20388;-83
2023/01/14 19:49:48;;;;;;;;;;;13.10;99.90;;;;;;5096394;28;19912;-83
2023/01/14 19:52:13;;;;;;;;;;;13.10;99.90;;;;;;5095756;28;19913;-83
2023/01/14 19:54:39;;;;;;;;;;;13.10;99.90;;;;;;5095854;28;19908;-83
2023/01/14 19:57:04;;;;;;;;;;;13.10;99.90;;;;;;5096311;28;19916;-83
2023/01/14 19:59:30;;;;;;;;;;;13.10;99.90;;;;;;5096912;28;20411;-83
2023/01/14 20:01:56;;;;;;;;;;;13.10;99.90;;;;;;5112463;28;19908;-83
2023/01/14 20:04:21;;;;;;;;;;;13.10;99.90;;;;;;5102641;28;19916;-84
2023/01/14 20:06:47;;;;;;;;;;;13.10;99.90;;;;;;5096302;28;20335;-83
2023/01/14 20:09:14;;;;;;;;;;;13.10;99.90;;;;;;5095468;28;19908;-83
2023/01/14 20:11:42;;;;;;;;;;;13.10;99.90;;;;;;5095803;28;19908;-83
2023/01/14 20:14:08;;;;;;;;;;;13.00;99.90;;;;;;5095610;28;19908;-83
2023/01/14 20:16:33;;;;;;;;;;;12.90;99.90;;;;;;5095164;28;19908;-83
2023/01/14 20:18:59;;;;;;;;;;;12.80;99.90;;;;;;5095291;28;19975;-82
2023/01/14 20:21:27;;;;;;;;;;;12.70;99.90;;;;;;5095170;28;19915;-83
2023/01/14 20:23:52;;;;;;;;;;;12.60;99.90;;;;;;5095059;28;19959;-83
2023/01/14 20:26:21;;;;;;;;;;;12.50;99.90;;;;;;5094444;28;20373;-82
2023/01/14 20:28:47;;;;;;;;;;;12.40;99.90;;;;;;5093248;28;20289;-82
2023/01/14 20:31:17;;;;;;;;;;;12.30;99.90;;;;;;5094455;28;20331;-83
2023/01/14 20:33:43;;;;;;;;;;;12.20;99.90;;;;;;5095208;28;19916;-83
2023/01/14 20:36:09;;;;;;;;;;;12.10;99.90;;;;;;5093974;28;19908;-83
2023/01/14 20:38:34;;;;;;;;;;;12.00;99.90;;;;;;5093953;28;20369;-83
2023/01/14 20:41:00;;;;;;;;;;;12.00;99.90;;;;;;5091539;28;19908;-83
2023/01/14 20:43:26;;;;;;;;;;;11.90;99.90;;;;;;5073653;28;19913;-84
2023/01/14 20:45:52;;;;;;;;;;;11.80;99.90;;;;;;5072940;28;20018;-83
2023/01/14 20:48:24;;;;;;;;;;;11.70;99.90;;;;;;5072477;28;20285;-84
2023/01/14 20:50:51;;;;;;;;;;;11.50;99.90;;;;;;5072079;28;19915;-84
2023/01/14 20:53:17;;;;;;;;;;;11.30;99.90;;;;;;5073118;28;19912;-83
2023/01/14 20:55:43;;;;;;;;;;;11.30;99.90;;;;;;5073430;28;19912;-83
2023/01/14 20:58:15;;;;;;;;;;;11.20;99.90;;;;;;5073261;28;20571;-83
2023/01/14 21:00:41;;;;;;;;;;;11.20;99.90;;;;;;5073163;28;19995;-83
2023/01/14 21:03:06;;;;;;;;;;;11.20;99.90;;;;;;5071396;28;19956;-83
2023/01/14 21:05:31;;;;;;;;;;;11.20;99.90;;;;;;5071794;28;19915;-83